createdAt,value
2023-04-11T00:01:35.388Z,6.50
2023-04-11T00:05:52.649Z,5.70
2023-04-11T00:10:10.586Z,5.70
2023-04-11T00:14:28.950Z,5.47
2023-04-11T00:18:46.188Z,6.03
2023-04-11T00:23:03.369Z,5.90
2023-04-11T00:27:21.896Z,5.50
2023-04-11T00:35:56.593Z,5.90
2023-04-11T00:40:16.499Z,5.88
2023-04-11T00:44:34.869Z,6.45
2023-04-11T00:48:53.123Z,5.53
2023-04-11T00:53:14.007Z,5.75
2023-04-11T00:57:32.263Z,5.63
2023-04-11T01:01:50.123Z,5.93
2023-04-11T01:06:14.172Z,6.65
2023-04-11T01:10:33.053Z,5.93
2023-04-11T01:14:50.575Z,5.93
2023-04-11T01:19:08.041Z,5.75
2023-04-11T01:23:26.069Z,5.80
2023-04-11T01:27:43.368Z,5.30
2023-04-11T01:32:00.637Z,5.32
2023-04-11T01:36:18.216Z,5.10
2023-04-11T01:40:36.142Z,5.50
2023-04-11T01:44:54.568Z,5.27
2023-04-11T01:49:15.526Z,5.75
2023-04-11T01:53:33.011Z,5.28
2023-04-11T01:57:50.355Z,5.47
2023-04-11T02:02:08.559Z,5.32
2023-04-11T02:06:27.596Z,5.30
2023-04-11T02:10:44.818Z,5.78
2023-04-11T02:15:02.272Z,6.03
2023-04-11T02:19:21.182Z,6.07
2023-04-11T02:23:38.593Z,6.57
2023-04-11T02:27:56.204Z,6.93
2023-04-11T02:32:13.705Z,6.15
2023-04-11T02:36:31.249Z,6.55
2023-04-11T02:40:48.896Z,7.40
2023-04-11T02:45:06.773Z,7.38
2023-04-11T02:49:24.023Z,8.07
2023-04-11T02:53:41.315Z,8.75
2023-04-11T02:57:58.917Z,8.63
2023-04-11T03:02:16.365Z,8.50
2023-04-11T03:06:33.721Z,8.57
2023-04-11T03:10:51.010Z,8.13
2023-04-11T03:15:09.432Z,7.88
2023-04-11T03:19:28.335Z,8.15
2023-04-11T03:23:46.024Z,9.52
2023-04-11T03:28:04.031Z,7.93
2023-04-11T03:32:21.395Z,7.80
2023-04-11T03:36:38.586Z,7.85
2023-04-11T03:40:56.086Z,7.57
2023-04-11T03:45:14.383Z,8.00
2023-04-11T03:49:31.657Z,8.00
2023-04-11T03:53:48.983Z,7.68
2023-04-11T03:58:06.700Z,7.63
2023-04-11T04:02:24.205Z,7.88
2023-04-11T04:06:41.924Z,8.07
2023-04-11T04:10:59.395Z,7.65
2023-04-11T04:15:16.904Z,8.35
2023-04-11T04:19:34.272Z,8.20
2023-04-11T04:23:54.639Z,8.38
2023-04-11T04:28:14.725Z,8.57
2023-04-11T04:32:32.216Z,8.57
2023-04-11T04:36:49.485Z,9.25
2023-04-11T04:41:14.995Z,9.77
2023-04-11T04:45:32.881Z,9.98
2023-04-11T04:49:56.579Z,10.50
2023-04-11T04:54:14.457Z,11.30
2023-04-11T04:58:31.923Z,11.52
2023-04-11T05:02:49.424Z,10.20
2023-04-11T05:07:06.781Z,10.50
2023-04-11T05:11:24.192Z,10.77
2023-04-11T05:15:48.260Z,11.25
2023-04-11T05:20:07.896Z,11.15
2023-04-11T05:24:25.671Z,10.95
2023-04-11T05:28:43.112Z,10.87
2023-04-11T05:33:01.410Z,10.20
2023-04-11T05:37:18.971Z,11.23
2023-04-11T05:41:36.432Z,10.80
2023-04-11T05:45:54.463Z,11.32
2023-04-11T05:50:11.671Z,11.60
2023-04-11T05:54:34.248Z,11.48
2023-04-11T05:58:52.317Z,13.13
2023-04-11T06:03:09.858Z,12.25
2023-04-11T06:07:27.865Z,12.32
2023-04-11T06:11:46.320Z,13.03
2023-04-11T06:16:05.360Z,12.15
2023-04-11T06:20:26.451Z,12.85
2023-04-11T06:24:45.414Z,13.52
2023-04-11T06:29:07.395Z,11.82
2023-04-11T06:33:24.679Z,12.70
2023-04-11T06:37:42.549Z,10.38
2023-04-11T06:42:00.077Z,9.87
2023-04-11T06:46:17.408Z,9.35
2023-04-11T06:50:39.522Z,8.13
2023-04-11T06:54:56.898Z,7.50
2023-04-11T06:59:14.382Z,6.78
2023-04-11T07:03:31.737Z,5.47
2023-04-11T07:07:49.433Z,5.50
2023-04-11T07:12:06.743Z,6.13
2023-04-11T07:16:27.151Z,5.60
2023-04-11T07:20:44.510Z,5.20
2023-04-11T07:25:01.872Z,4.53
2023-04-11T07:29:20.214Z,4.70
2023-04-11T07:33:37.724Z,3.53
2023-04-11T07:37:56.618Z,4.45
2023-04-11T07:42:14.147Z,4.05
2023-04-11T07:46:32.583Z,4.05
2023-04-11T07:55:08.497Z,3.60
2023-04-11T07:59:25.970Z,3.70
2023-04-11T08:03:45.522Z,3.13
2023-04-11T08:08:07.118Z,3.38
2023-04-11T08:12:24.340Z,3.00
2023-04-11T08:16:41.968Z,2.75
2023-04-11T08:20:59.404Z,2.40
2023-04-11T08:25:20.063Z,2.60
2023-04-11T08:29:37.954Z,2.08
2023-04-11T08:33:57.025Z,2.40
2023-04-11T08:38:16.549Z,2.30
2023-04-11T08:42:34.366Z,2.72
2023-04-11T08:46:52.586Z,2.75
2023-04-11T08:51:09.762Z,2.17
2023-04-11T08:55:27.174Z,2.30
2023-04-11T08:59:51.610Z,2.58
2023-04-11T09:04:10.628Z,1.67
2023-04-11T09:08:38.612Z,1.80
2023-04-11T09:12:56.918Z,1.25
2023-04-11T09:17:14.805Z,1.48
2023-04-11T09:21:42.535Z,2.63
2023-04-11T09:25:59.993Z,1.83
2023-04-11T09:30:22.908Z,1.40
2023-04-11T09:34:42.392Z,1.42
2023-04-11T09:39:00.069Z,1.88
2023-04-11T09:43:19.901Z,1.70
2023-04-11T09:47:37.805Z,1.73
2023-04-11T09:51:57.658Z,1.40
2023-04-11T09:56:15.201Z,1.38
2023-04-11T10:00:33.049Z,1.50
2023-04-11T10:04:51.680Z,1.55
2023-04-11T10:09:13.314Z,1.50
2023-04-11T10:13:38.950Z,1.25
2023-04-11T10:18:10.787Z,1.20
2023-04-11T10:22:51.446Z,1.50
2023-04-11T10:27:08.748Z,1.88
2023-04-11T10:31:26.738Z,1.48
2023-04-11T10:36:05.714Z,1.80
2023-04-11T10:44:42.339Z,1.75
2023-04-11T10:49:04.598Z,2.30
2023-04-11T10:53:36.462Z,1.80
2023-04-11T10:58:08.230Z,1.25
2023-04-11T11:02:37.067Z,0.60
2023-04-11T11:07:17.026Z,1.10
2023-04-11T11:11:34.433Z,1.33
2023-04-11T11:15:51.723Z,1.42
2023-04-11T11:20:16.666Z,1.50
2023-04-11T11:24:34.108Z,1.13
2023-04-11T11:28:51.746Z,1.20
2023-04-11T11:33:20.673Z,1.20
2023-04-11T11:37:39.603Z,1.20
2023-04-11T11:41:58.157Z,1.58
2023-04-11T11:46:15.677Z,1.40
2023-04-11T11:50:33.592Z,1.30
2023-04-11T11:54:52.576Z,0.90
2023-04-11T11:59:10.708Z,1.30
2023-04-11T12:03:29.781Z,1.00
2023-04-11T12:07:47.661Z,1.23
2023-04-11T12:12:09.334Z,1.15
2023-04-11T12:16:27.328Z,2.17
2023-04-11T12:20:44.673Z,0.90
2023-04-11T12:25:13.601Z,0.85
2023-04-11T12:29:30.898Z,1.20
2023-04-11T12:33:48.637Z,1.15
2023-04-11T12:38:10.950Z,1.30
2023-04-11T12:42:33.280Z,1.08
2023-04-11T12:46:52.049Z,0.77
2023-04-11T12:51:09.278Z,1.50
2023-04-11T12:55:26.590Z,0.60
2023-04-11T12:59:44.210Z,1.00
2023-04-11T13:04:01.638Z,1.10
2023-04-11T13:08:19.086Z,1.10
2023-04-11T13:12:44.535Z,1.48
2023-04-11T13:17:02.426Z,1.52
2023-04-11T13:21:19.660Z,1.02
2023-04-11T13:25:37.928Z,1.20
2023-04-11T13:29:55.532Z,1.00
2023-04-11T13:34:12.961Z,1.42
2023-04-11T13:38:30.811Z,1.00
2023-04-11T13:42:48.288Z,1.20
2023-04-11T13:47:06.306Z,1.10
2023-04-11T13:51:23.783Z,1.25
2023-04-11T13:55:41.389Z,1.33
2023-04-11T13:59:58.570Z,1.23
2023-04-11T14:04:16.014Z,1.80
2023-04-11T14:08:33.350Z,3.08
2023-04-11T14:12:50.676Z,1.92
2023-04-11T14:17:08.075Z,2.05
2023-04-11T14:25:46.166Z,2.85
2023-04-11T14:30:04.028Z,1.90
2023-04-11T14:34:21.711Z,2.33
2023-04-11T14:38:39.225Z,1.90
2023-04-11T14:43:00.930Z,2.30
2023-04-11T14:47:18.164Z,1.52
2023-04-11T14:51:36.993Z,1.02
2023-04-11T14:55:54.446Z,1.50
2023-04-11T15:00:18.302Z,1.70
2023-04-11T15:04:35.993Z,1.70
2023-04-11T15:08:53.456Z,2.13
2023-04-11T15:13:11.979Z,1.88
2023-04-11T15:17:29.579Z,2.00
2023-04-11T15:21:46.816Z,1.85
2023-04-11T15:26:04.655Z,2.42
2023-04-11T15:30:21.833Z,2.87
2023-04-11T15:34:40.717Z,2.95
2023-04-11T15:38:58.076Z,3.40
2023-04-11T15:43:15.432Z,3.42
2023-04-11T15:47:33.690Z,3.38
2023-04-11T15:51:51.214Z,2.97
2023-04-11T15:56:08.820Z,2.67
2023-04-11T16:00:27.511Z,2.78
2023-04-11T16:09:05.581Z,3.47
2023-04-11T16:13:22.992Z,3.72
2023-04-11T16:17:40.613Z,3.72
2023-04-11T16:21:57.972Z,2.72
2023-04-11T16:26:16.501Z,2.58
2023-04-11T16:30:34.052Z,2.50
2023-04-11T16:34:52.023Z,2.40
2023-04-11T16:39:09.232Z,1.90
2023-04-11T16:43:26.442Z,1.90
2023-04-11T16:47:43.771Z,2.50
2023-04-11T16:52:04.112Z,2.28
2023-04-11T16:56:21.709Z,4.53
2023-04-11T17:00:39.435Z,1.63
2023-04-11T17:04:57.212Z,2.38
2023-04-11T17:09:15.027Z,1.43
2023-04-11T17:13:33.541Z,1.48
2023-04-11T17:17:50.985Z,1.33
2023-04-11T17:22:08.683Z,1.10
2023-04-11T17:26:28.087Z,1.60
2023-04-11T17:30:50.132Z,1.80
2023-04-11T17:35:07.646Z,1.83
2023-04-11T17:39:26.618Z,1.52
2023-04-11T17:43:45.478Z,1.40
2023-04-11T17:48:03.124Z,1.63
2023-04-11T17:52:20.435Z,1.30
2023-04-11T17:56:37.655Z,1.50
2023-04-11T18:00:56.506Z,1.30
2023-04-11T18:05:23.187Z,1.45
2023-04-11T18:09:43.296Z,1.73
2023-04-11T18:18:19.728Z,2.42
2023-04-11T18:22:39.543Z,2.28
2023-04-11T18:26:57.787Z,2.53
2023-04-11T18:31:18.314Z,2.22
2023-04-11T18:35:35.816Z,1.83
2023-04-11T18:39:54.272Z,1.90
2023-04-11T18:44:12.112Z,1.67
2023-04-11T18:48:31.108Z,2.17
2023-04-11T18:52:54.676Z,2.50
2023-04-11T18:57:14.710Z,3.20
2023-04-11T19:01:32.757Z,3.20
2023-04-11T19:05:50.622Z,3.27
2023-04-11T19:10:09.562Z,3.10
2023-04-11T19:14:28.331Z,3.20
2023-04-11T19:18:48.177Z,2.90
2023-04-11T19:23:06.131Z,2.55
2023-04-11T19:27:23.851Z,2.75
2023-04-11T19:31:41.568Z,2.97
2023-04-11T19:35:59.458Z,2.55
2023-04-11T19:40:19.744Z,2.47
2023-04-11T19:44:37.874Z,2.03
2023-04-11T19:48:56.740Z,2.33
2023-04-11T19:53:14.247Z,2.17
2023-04-11T19:57:31.877Z,2.47
2023-04-11T20:01:49.543Z,2.53
2023-04-11T20:06:07.852Z,2.60
2023-04-11T20:10:28.371Z,2.60
2023-04-11T20:14:46.172Z,3.20
2023-04-11T20:19:03.648Z,3.00
2023-04-11T20:23:21.705Z,2.97
2023-04-11T20:27:40.046Z,3.60
2023-04-11T20:31:57.620Z,3.10
2023-04-11T20:36:16.147Z,3.10
2023-04-11T20:44:51.103Z,3.05
2023-04-11T20:49:08.551Z,2.50
2023-04-11T20:53:27.888Z,2.50
2023-04-11T20:57:45.530Z,2.70
2023-04-11T21:02:02.999Z,2.95
2023-04-11T21:06:20.230Z,3.33
2023-04-11T21:10:37.685Z,3.75
2023-04-11T21:14:54.851Z,3.50
2023-04-11T21:19:12.128Z,3.20
2023-04-11T21:23:29.446Z,3.10
2023-04-11T21:27:48.508Z,3.47
2023-04-11T21:32:05.851Z,3.38
2023-04-11T21:36:23.051Z,3.55
2023-04-11T21:40:40.669Z,3.78
2023-04-11T21:44:59.389Z,4.10
2023-04-11T21:49:16.748Z,3.97
2023-04-11T21:53:34.124Z,4.00
2023-04-11T21:57:51.734Z,4.53
2023-04-11T22:02:09.077Z,4.00
2023-04-11T22:06:27.683Z,4.53
2023-04-11T22:15:06.605Z,4.68
2023-04-11T22:19:24.460Z,4.43
2023-04-11T22:23:43.213Z,4.22
2023-04-11T22:28:00.699Z,4.28
2023-04-11T22:32:18.074Z,4.60
2023-04-11T22:36:36.322Z,4.77
2023-04-11T22:40:53.505Z,4.88
2023-04-11T22:45:11.512Z,4.15
2023-04-11T22:49:28.929Z,3.92
2023-04-11T22:53:48.270Z,4.85
2023-04-11T22:58:06.048Z,4.07
2023-04-11T23:02:24.545Z,4.32
2023-04-11T23:06:41.776Z,4.32
2023-04-11T23:10:59.579Z,3.75
2023-04-11T23:15:17.447Z,4.20
2023-04-11T23:19:36.359Z,4.53
2023-04-11T23:23:53.911Z,4.07
2023-04-11T23:28:12.201Z,4.70
2023-04-11T23:32:29.487Z,4.43
2023-04-11T23:36:48.244Z,4.53
2023-04-11T23:41:06.730Z,4.10
2023-04-11T23:45:24.416Z,3.85
2023-04-11T23:49:42.406Z,4.25
2023-04-11T23:54:00.406Z,4.18
2023-04-11T23:58:18.218Z,4.05
